Time;durP1;ratioP1;P1;durP2;ratioP2;P2;SDS_P1;SDS_P2;PMS_P1;PMS_P2;Temp;Humidity;BMP_temperature;BMP_pressure;BME280_temperature;BME280_humidity;BME280_pressure;Samples;Min_cycle;Max_cycle;Signal;HPM_P1;HPM_P2
2021/11/11 00:01:32;;;;;;;34.28;23.08;;;4.00;81.50;;;1.94;90.19;96532.84;4952165;28;20082;-63
2021/11/11 00:03:58;;;;;;;32.25;22.98;;;3.90;81.70;;;1.93;90.30;96539.81;4969135;28;20034;-63
2021/11/11 00:06:24;;;;;;;36.55;22.30;;;3.90;81.60;;;1.91;90.14;96540.88;4986814;28;20042;-63
2021/11/11 00:08:50;;;;;;;34.22;21.77;;;3.90;81.70;;;1.89;90.22;96537.59;4987730;28;20568;-63
2021/11/11 00:11:16;;;;;;;28.65;20.30;;;3.90;81.70;;;1.88;90.25;96531.59;4954496;28;20042;-63
2021/11/11 00:13:42;;;;;;;29.38;19.63;;;3.90;81.70;;;1.87;89.85;96529.94;4969750;28;20038;-63
2021/11/11 00:16:07;;;;;;;27.63;19.95;;;3.80;81.40;;;1.85;89.88;96511.09;4972940;28;20194;-63
2021/11/11 00:18:33;;;;;;;27.65;19.50;;;3.80;81.30;;;1.82;90.12;96511.34;4972962;28;20045;-63
2021/11/11 00:20:59;;;;;;;27.90;18.88;;;3.80;81.00;;;1.78;90.13;96515.09;4993153;28;20569;-63
2021/11/11 00:23:24;;;;;;;23.67;18.23;;;3.80;81.00;;;1.76;90.41;96507.44;4954053;28;20038;-63
2021/11/11 00:25:50;;;;;;;22.98;17.50;;;3.80;80.90;;;1.75;90.31;96517.94;4988097;28;20118;-63
2021/11/11 00:28:16;;;;;;;24.27;17.90;;;3.70;80.90;;;1.71;89.96;96519.97;4995663;28;20046;-63
2021/11/11 00:30:42;;;;;;;22.77;18.05;;;3.70;81.20;;;1.71;89.97;96525.16;5004765;28;20070;-64
2021/11/11 00:33:07;;;;;;;24.67;16.23;;;3.70;81.20;;;1.70;89.72;96533.88;4979393;28;20152;-63
2021/11/11 00:35:33;;;;;;;20.35;15.75;;;3.60;81.20;;;1.67;89.29;96523.78;4968430;28;20438;-64
2021/11/11 00:37:59;;;;;;;20.92;16.08;;;3.60;80.40;;;1.62;88.49;96520.72;4967612;28;20511;-63
2021/11/11 00:40:27;;;;;;;24.33;17.55;;;3.50;80.20;;;1.58;89.27;96524.50;4987127;28;20034;-63
2021/11/11 00:42:53;;;;;;;24.45;17.67;;;3.50;80.70;;;1.56;89.00;96536.75;4976864;28;20035;-63
2021/11/11 00:45:18;;;;;;;47.45;20.38;;;3.50;80.60;;;1.54;89.05;96533.47;4970633;28;20098;-63
2021/11/11 00:47:45;;;;;;;52.22;24.05;;;3.40;80.80;;;1.51;89.60;96529.34;5016855;28;20026;-64
2021/11/11 00:50:12;;;;;;;69.13;24.42;;;3.50;81.50;;;1.50;89.75;96521.69;4973198;28;20072;-63
2021/11/11 00:52:38;;;;;;;57.45;23.80;;;3.40;82.40;;;1.47;90.25;96521.94;4968514;28;20797;-63
2021/11/11 00:55:05;;;;;;;72.10;22.88;;;3.40;82.20;;;1.41;89.39;96527.63;4969666;28;20065;-63
2021/11/11 00:57:31;;;;;;;62.08;20.80;;;3.30;81.70;;;1.36;90.00;96527.16;5001148;28;20084;-63
2021/11/11 00:59:57;;;;;;;61.10;18.98;;;3.20;81.70;;;1.29;90.14;96533.78;4955386;28;20038;-63
2021/11/11 01:02:23;;;;;;;40.63;19.42;;;3.10;82.00;;;1.23;89.94;96533.31;4971719;28;20107;-63
2021/11/11 01:04:49;;;;;;;53.67;18.80;;;3.10;82.30;;;1.21;89.61;96532.63;4981095;28;20038;-63
2021/11/11 01:07:15;;;;;;;44.63;18.60;;;3.10;82.30;;;1.16;90.40;96534.75;4997073;28;20410;-63
2021/11/11 01:09:41;;;;;;;71.70;18.35;;;3.10;82.30;;;1.14;90.63;96541.81;4994167;23;20022;-69
2021/11/11 01:12:08;;;;;;;38.33;18.58;;;3.10;82.20;;;1.12;90.71;96533.31;5000638;28;20038;-70
2021/11/11 01:14:35;;;;;;;30.20;17.60;;;3.00;82.70;;;1.08;90.81;96526.72;4999918;28;20030;-69
2021/11/11 01:17:01;;;;;;;24.95;17.45;;;3.10;82.60;;;1.08;90.31;96521.56;5008189;28;20038;-69
2021/11/11 01:19:26;;;;;;;26.25;17.38;;;3.10;82.60;;;1.06;90.59;96525.22;5008121;28;20460;-69
2021/11/11 01:21:52;;;;;;;28.08;18.20;;;3.10;82.50;;;1.06;91.22;96518.25;4976181;28;20033;-69
2021/11/11 01:24:18;;;;;;;30.63;17.77;;;3.10;82.70;;;1.05;90.72;96514.03;5009316;28;20044;-69
2021/11/11 01:26:44;;;;;;;31.40;18.88;;;3.10;82.80;;;1.03;91.16;96517.69;4991739;28;20080;-69
2021/11/11 01:29:10;;;;;;;24.63;19.00;;;3.10;82.70;;;1.01;91.39;96515.22;4959331;28;20041;-69
2021/11/11 01:31:36;;;;;;;25.95;19.40;;;3.10;82.90;;;1.01;92.00;96515.22;4991352;28;20109;-69
2021/11/11 01:34:02;;;;;;;28.55;19.10;;;3.10;82.70;;;1.00;91.83;96516.16;4992310;28;20026;-69
2021/11/11 01:36:27;;;;;;;26.42;19.40;;;3.10;82.40;;;1.04;91.21;96525.31;4991598;28;20057;-69
2021/11/11 01:38:53;;;;;;;27.15;18.33;;;3.10;82.50;;;1.06;91.67;96528.63;5009020;28;20026;-70
2021/11/11 01:41:19;;;;;;;44.83;19.17;;;3.10;82.30;;;1.03;91.33;96539.22;5008634;28;20023;-69
2021/11/11 01:43:44;;;;;;;45.75;19.05;;;3.00;82.30;;;1.01;90.88;96535.94;4988067;28;20142;-69
2021/11/11 01:46:10;;;;;;;42.35;19.77;;;3.00;82.90;;;0.98;91.09;96531.00;5014831;28;20578;-69
2021/11/11 01:48:36;;;;;;;42.17;18.92;;;3.00;82.80;;;0.98;91.85;96520.63;5011808;28;20030;-70
2021/11/11 01:51:02;;;;;;;34.45;18.75;;;2.90;83.10;;;0.98;91.05;96518.03;4993805;28;20501;-69
2021/11/11 01:53:28;;;;;;;35.38;19.20;;;3.00;83.00;;;0.97;91.58;96508.63;5007732;28;20099;-68
2021/11/11 01:55:53;;;;;;;34.03;18.65;;;3.00;83.40;;;0.99;92.34;96500.75;4960780;28;20520;-69
2021/11/11 01:58:19;;;;;;;27.48;18.98;;;3.00;83.20;;;0.97;91.88;96506.03;5012393;28;20064;-69
2021/11/11 02:01:04;;;;;;;38.28;18.40;;;3.00;83.10;;;0.96;92.93;96506.97;4992192;28;20076;-69
2021/11/11 02:03:29;;;;;;;29.13;18.45;;;3.00;82.90;;;0.93;91.51;96509.81;5003524;28;20493;-68
2021/11/11 02:05:55;;;;;;;41.53;19.55;;;3.10;83.00;;;0.95;92.06;96502.75;5007165;28;20100;-68
2021/11/11 02:08:22;;;;;;;40.60;19.23;;;3.00;83.10;;;0.98;92.24;96505.09;4975020;28;20517;-69
2021/11/11 02:10:48;;;;;;;55.72;19.20;;;3.00;83.20;;;0.99;91.86;96501.56;5024215;28;20510;-69
2021/11/11 02:13:13;;;;;;;42.95;20.80;;;3.00;83.20;;;0.95;92.44;96500.16;5007406;28;20064;-69
2021/11/11 02:15:39;;;;;;;39.08;20.52;;;3.00;83.30;;;0.97;92.43;96503.44;4992572;28;20041;-68
2021/11/11 02:18:06;;;;;;;48.92;21.38;;;3.00;83.30;;;0.97;92.25;96498.28;4993726;28;20563;-68
2021/11/11 02:20:35;;;;;;;54.58;20.45;;;3.00;83.20;;;0.97;92.67;96508.63;5008165;28;20479;-69
2021/11/11 02:23:03;;;;;;;29.90;19.15;;;3.00;83.30;;;0.95;92.33;96494.97;5008520;28;20134;-69
2021/11/11 02:25:29;;;;;;;42.70;19.15;;;3.00;83.40;;;0.96;92.37;96495.81;4992385;28;20053;-68
2021/11/11 02:28:02;;;;;;;51.55;20.40;;;2.90;83.60;;;0.97;92.38;96492.25;4992889;28;20041;-69
2021/11/11 02:30:29;;;;;;;39.95;19.55;;;3.00;83.50;;;0.93;92.88;96486.50;5006716;28;20038;-69
2021/11/11 02:32:55;;;;;;;40.83;20.00;;;3.00;83.40;;;0.91;92.82;96493.56;4975797;28;20122;-69
2021/11/11 02:35:21;;;;;;;28.48;20.40;;;2.90;83.50;;;0.91;93.10;96493.56;4993044;28;20030;-69
2021/11/11 02:37:47;;;;;;;29.42;19.30;;;3.00;83.30;;;0.92;93.06;96482.28;4976530;28;20041;-68
2021/11/11 02:40:21;;;;;;;46.03;19.67;;;3.00;83.40;;;0.93;93.22;96490.88;5009379;28;20088;-69
2021/11/11 02:42:47;;;;;;;32.15;19.10;;;3.00;83.10;;;0.89;92.51;96490.25;5011488;28;20434;-69
2021/11/11 02:45:21;;;;;;;39.33;19.63;;;2.90;83.00;;;0.91;92.11;96486.63;4978036;28;20037;-69
2021/11/11 02:47:46;;;;;;;37.78;18.27;;;3.00;83.00;;;0.88;92.42;96483.44;5009358;28;20022;-69
2021/11/11 02:50:12;;;;;;;46.65;18.58;;;2.90;83.30;;;0.86;92.41;96490.50;4991838;28;20117;-68
2021/11/11 02:52:38;;;;;;;42.92;18.48;;;2.80;83.50;;;0.82;92.83;96494.28;5008222;28;20042;-69
2021/11/11 02:55:05;;;;;;;39.83;18.13;;;2.80;83.70;;;0.79;93.07;96491.94;4987186;28;20038;-69
2021/11/11 02:57:34;;;;;;;36.78;17.42;;;2.80;83.70;;;0.76;93.10;96494.75;4993898;28;20038;-68
2021/11/11 03:00:08;;;;;;;34.35;17.40;;;2.80;83.40;;;0.77;93.17;96504.16;5008394;28;20506;-69
2021/11/11 03:02:35;;;;;;;43.05;18.45;;;2.80;83.30;;;0.77;92.52;96505.00;5004163;28;20502;-69
2021/11/11 03:05:02;;;;;;;37.15;18.20;;;2.80;83.40;;;0.79;93.02;96502.28;4994234;28;20525;-68
2021/11/11 03:07:28;;;;;;;27.77;17.23;;;2.90;83.50;;;0.77;93.48;96492.06;5010324;28;20168;-67
2021/11/11 03:09:53;;;;;;;33.33;18.50;;;2.80;83.60;;;0.78;92.72;96495.47;4993602;28;20533;-68
2021/11/11 03:12:20;;;;;;;39.47;16.90;;;2.80;83.60;;;0.81;93.28;96487.44;4994378;28;20073;-68
2021/11/11 03:14:46;;;;;;;29.83;17.65;;;2.80;83.60;;;0.81;92.92;96487.44;4978432;28;20029;-68
2021/11/11 03:17:12;;;;;;;31.65;17.48;;;2.90;83.70;;;0.83;93.29;96491.56;4994373;28;20533;-68
2021/11/11 03:19:38;;;;;;;99.38;18.90;;;2.90;83.80;;;0.85;94.10;96488.84;4994002;28;20030;-67
2021/11/11 03:22:06;;;;;;;53.05;19.15;;;2.90;83.90;;;0.85;93.74;96494.03;5001882;28;20061;-68
2021/11/11 03:24:35;;;;;;;103.40;23.23;;;2.90;84.20;;;0.81;94.14;96487.44;4978211;28;20041;-68
2021/11/11 03:27:02;;;;;;;92.78;23.70;;;2.90;84.60;;;0.84;93.95;96505.34;4978240;28;20061;-68
2021/11/11 03:29:27;;;;;;;159.90;24.73;;;2.90;85.00;;;0.83;94.47;96501.09;5009675;28;20411;-68
2021/11/11 03:31:53;;;;;;;92.80;41.67;;;2.80;85.30;;;0.84;95.25;96516.50;5011729;28;20109;-68
2021/11/11 03:34:19;;;;;;;72.68;26.23;;;3.00;85.50;;;0.85;94.37;96504.38;5009803;28;20536;-68
2021/11/11 03:36:46;;;;;;;72.32;22.80;;;3.00;84.90;;;0.86;95.19;96512.03;5026868;28;20034;-68
2021/11/11 03:39:12;;;;;;;70.57;22.55;;;2.90;84.80;;;0.86;94.74;96511.22;5009569;28;20049;-68
2021/11/11 03:41:37;;;;;;;96.10;23.20;;;2.90;84.60;;;0.84;94.69;96515.69;5009427;28;20034;-68
2021/11/11 03:44:03;;;;;;;83.93;22.35;;;2.90;84.80;;;0.82;94.37;96515.81;4977302;28;20030;-67
2021/11/11 03:46:29;;;;;;;80.95;22.85;;;2.90;84.80;;;0.81;94.50;96497.81;4986762;28;20049;-68
2021/11/11 03:48:54;;;;;;;119.40;23.02;;;2.90;84.70;;;0.82;94.25;96515.00;4992902;28;20041;-69
2021/11/11 03:51:21;;;;;;;64.30;23.38;;;2.80;84.30;;;0.80;94.57;96506.53;4966115;28;20486;-66
2021/11/11 03:53:52;;;;;;;94.13;22.08;;;2.80;85.10;;;0.81;94.35;96508.16;4975815;28;20120;-68
2021/11/11 03:56:18;;;;;;;87.20;24.45;;;2.90;84.80;;;0.82;94.69;96515.81;4989550;28;20120;-66
2021/11/11 03:58:45;;;;;;;64.95;21.80;;;2.80;84.90;;;0.82;94.85;96525.34;5009888;28;20061;-68
2021/11/11 04:01:12;;;;;;;39.78;20.58;;;2.80;84.90;;;0.81;95.24;96528.88;5006733;28;20041;-68
2021/11/11 04:03:38;;;;;;;64.25;20.13;;;2.90;84.50;;;0.80;94.58;96527.25;4992520;28;20405;-67
2021/11/11 04:06:03;;;;;;;67.78;20.88;;;2.90;84.00;;;0.80;94.75;96529.81;4992817;28;20034;-68
2021/11/11 04:08:30;;;;;;;55.42;17.92;;;2.90;84.30;;;0.78;94.80;96523.94;4991985;28;20532;-67
2021/11/11 04:10:56;;;;;;;49.22;17.65;;;2.80;84.10;;;0.76;94.77;96520.66;4992999;28;20509;-68
2021/11/11 04:13:22;;;;;;;43.42;17.45;;;2.70;84.00;;;0.76;94.60;96515.47;4993093;28;20123;-68
2021/11/11 04:15:48;;;;;;;70.47;18.25;;;2.80;84.10;;;0.73;94.49;96515.72;5004731;28;20050;-67
2021/11/11 04:18:13;;;;;;;37.58;17.80;;;2.80;83.90;;;0.70;94.22;96518.53;5008859;28;20046;-67
2021/11/11 04:20:39;;;;;;;58.90;17.40;;;2.70;84.20;;;0.71;94.48;96512.41;4976876;28;20034;-68
2021/11/11 04:23:05;;;;;;;36.47;17.38;;;2.80;84.00;;;0.71;94.85;96507.25;5009044;28;20034;-67
2021/11/11 04:28:04;;;;;;;30.55;16.65;;;2.80;83.90;;;0.73;94.62;96520.88;5008994;28;20415;-68
2021/11/11 04:30:33;;;;;;;37.45;17.40;;;2.90;83.80;;;0.73;94.09;96520.88;5009180;28;20085;-69
2021/11/11 04:32:59;;;;;;;48.08;17.63;;;2.80;84.00;;;0.74;94.66;96519.94;5008862;28;20038;-68
2021/11/11 04:35:25;;;;;;;40.38;17.10;;;2.90;84.00;;;0.72;94.98;96525.25;4993149;28;21569;-68
2021/11/11 04:38:02;;;;;;;27.10;17.92;;;2.80;84.00;;;0.72;94.35;96529.59;4992189;28;20121;-67
2021/11/11 04:43:47;;;;;;;46.75;16.63;;;2.80;83.90;;;0.66;94.60;96514.50;4995027;28;20041;-69
2021/11/11 04:49:02;;;;;;;29.67;16.38;;;2.70;83.30;;;0.70;93.64;96524.53;5008694;28;20042;-68
2021/11/11 04:59:45;;;;;;;36.70;16.02;;;2.70;83.00;;;0.63;93.59;96548.41;5017552;28;20057;-66
2021/11/11 05:02:34;;;;;;;21.95;15.27;;;2.70;83.00;;;0.60;93.19;96545.13;5008749;28;20038;-67
2021/11/11 05:05:00;;;;;;;86.95;17.77;;;2.70;82.80;;;0.62;93.85;96550.16;4987537;28;20113;-66
2021/11/11 05:07:26;;;;;;;72.75;17.80;;;2.70;83.10;;;0.62;94.39;96545.00;4997916;28;20053;-66
2021/11/11 05:09:51;;;;;;;161.88;19.23;;;2.70;83.90;;;0.57;93.63;96537.59;5009063;28;20030;-65
2021/11/11 05:12:18;;;;;;;95.88;18.83;;;2.60;83.90;;;0.56;93.72;96538.53;4992871;28;20049;-65
2021/11/11 05:14:43;;;;;;;112.20;19.30;;;2.60;83.90;;;0.57;93.96;96542.75;5009258;28;20404;-65
2021/11/11 05:17:09;;;;;;;81.10;17.35;;;2.60;84.10;;;0.54;94.12;96553.34;5016469;28;20037;-65
2021/11/11 05:19:35;;;;;;;56.70;17.75;;;2.50;84.30;;;0.45;93.59;96538.50;5028923;28;20033;-65
2021/11/11 05:22:01;;;;;;;43.58;17.70;;;2.30;85.00;;;0.43;94.13;96550.72;4993753;28;20049;-64
2021/11/11 05:24:27;;;;;;;87.10;17.55;;;2.30;85.00;;;0.34;93.59;96551.44;5010418;28;20038;-65
2021/11/11 05:26:54;;;;;;;75.95;18.60;;;2.10;84.80;;;0.28;93.54;96546.72;5010259;28;20069;-65
2021/11/11 05:29:20;;;;;;;58.50;17.50;;;2.10;84.90;;;0.27;93.84;96545.09;4992593;28;20026;-65
2021/11/11 05:31:46;;;;;;;39.42;18.25;;;2.20;85.00;;;0.26;94.62;96540.84;5008068;28;20402;-65
2021/11/11 05:34:12;;;;;;;39.65;16.23;;;2.30;85.00;;;0.24;94.53;96540.97;5010025;28;20026;-65
2021/11/11 05:36:37;;;;;;;37.70;16.85;;;2.20;84.70;;;0.28;94.58;96546.72;4992761;28;20061;-65
2021/11/11 05:39:03;;;;;;;62.30;16.48;;;2.30;84.60;;;0.26;94.90;96538.25;5009740;28;20080;-65
2021/11/11 05:41:29;;;;;;;69.93;17.20;;;2.30;84.70;;;0.28;94.50;96536.38;5008245;28;20084;-65
2021/11/11 05:43:54;;;;;;;27.88;17.10;;;2.30;84.70;;;0.27;94.50;96542.50;5008635;28;20575;-65
2021/11/11 05:46:20;;;;;;;77.43;17.77;;;2.40;84.80;;;0.26;94.43;96546.84;5025348;28;20050;-66
2021/11/11 05:48:46;;;;;;;84.57;16.40;;;2.30;84.30;;;0.25;94.79;96557.31;5009825;28;20026;-64
2021/11/11 05:51:11;;;;;;;78.15;17.27;;;2.20;84.30;;;0.20;94.00;96569.75;4992195;28;20045;-65
2021/11/11 05:53:37;;;;;;;35.92;18.23;;;2.10;84.60;;;0.13;94.73;96560.78;5002827;28;20061;-65
2021/11/11 05:56:03;;;;;;;54.58;18.27;;;2.10;85.60;;;0.12;94.55;96567.72;4957050;28;20493;-65
2021/11/11 05:58:29;;;;;;;50.28;18.00;;;2.10;85.50;;;0.15;95.09;96571.84;4989225;28;20026;-66
2021/11/11 06:00:55;;;;;;;82.38;18.80;;;2.10;85.20;;;0.12;95.18;96567.72;5028097;28;20056;-66
2021/11/11 06:03:20;;;;;;;50.22;18.10;;;2.10;85.40;;;0.12;95.35;96569.50;5012374;28;20049;-65
2021/11/11 06:05:46;;;;;;;47.70;18.77;;;2.20;85.30;;;0.13;95.21;96586.66;4992071;28;20493;-66
2021/11/11 06:08:12;;;;;;;51.95;17.75;;;2.20;85.20;;;0.13;95.63;96584.06;5009785;28;20030;-65
2021/11/11 06:10:38;;;;;;;24.48;16.67;;;2.20;85.40;;;0.17;95.78;96593.25;4959655;28;20398;-66
2021/11/11 06:13:03;;;;;;;28.00;19.10;;;2.20;85.50;;;0.21;95.88;96597.25;5009372;28;20034;-65
2021/11/11 06:15:29;;;;;;;44.53;20.98;;;2.30;85.40;;;0.22;95.61;96599.72;4991884;28;20045;-66
2021/11/11 06:17:55;;;;;;;62.92;23.67;;;2.40;85.30;;;0.27;95.95;96594.25;5008410;28;20034;-65
2021/11/11 06:20:30;;;;;;;52.28;19.90;;;2.40;85.30;;;0.28;96.06;96601.88;4992072;28;20034;-65
2021/11/11 06:22:56;;;;;;;52.97;19.10;;;2.40;85.40;;;0.32;95.89;96610.25;4993313;28;20041;-65
2021/11/11 06:25:22;;;;;;;48.03;22.00;;;2.50;85.20;;;0.33;96.50;96601.53;5008625;28;20034;-65
2021/11/11 06:27:48;;;;;;;49.25;22.20;;;2.50;85.40;;;0.35;95.75;96599.66;5008019;28;20052;-65
2021/11/11 06:30:13;;;;;;;30.98;17.95;;;2.50;85.00;;;0.39;96.48;96589.91;5009295;28;20391;-64
2021/11/11 06:32:39;;;;;;;46.33;20.08;;;2.60;85.30;;;0.43;96.45;96596.50;5010943;28;20124;-65
2021/11/11 06:35:07;;;;;;;51.08;18.60;;;2.60;85.40;;;0.38;96.17;96583.91;5011825;28;20065;-65
2021/11/11 06:37:34;;;;;;;47.92;28.95;;;2.60;84.90;;;0.44;96.45;96588.59;4995487;28;20425;-64
2021/11/11 06:40:00;;;;;;;59.05;25.65;;;2.70;85.20;;;0.50;96.81;96593.34;4995249;28;20026;-65
2021/11/11 06:42:26;;;;;;;57.08;19.33;;;2.70;84.90;;;0.53;96.66;96580.19;5012814;28;20037;-64
2021/11/11 06:44:52;;;;;;;64.90;31.73;;;2.70;84.50;;;0.55;96.30;96585.22;4995552;28;20057;-65
2021/11/11 06:47:17;;;;;;;57.60;19.92;;;2.80;84.60;;;0.54;95.87;96573.25;5011897;28;20034;-65
2021/11/11 06:49:43;;;;;;;37.88;19.85;;;2.70;84.50;;;0.56;96.20;96576.53;4994578;28;20045;-65
2021/11/11 06:52:09;;;;;;;48.33;17.42;;;2.70;84.50;;;0.57;96.07;96584.19;4994957;28;20117;-65
2021/11/11 06:54:35;;;;;;;35.65;18.55;;;2.70;84.10;;;0.61;95.53;96583.00;5011622;28;20454;-65
2021/11/11 06:57:01;;;;;;;47.50;17.25;;;2.80;84.50;;;0.62;96.00;96586.41;5011498;28;20036;-65
2021/11/11 06:59:26;;;;;;;51.15;16.95;;;2.80;84.30;;;0.67;96.79;96593.81;4994983;28;20072;-66
2021/11/11 07:01:52;;;;;;;31.73;18.15;;;3.00;84.30;;;0.63;96.37;96597.59;5011103;28;20141;-65
2021/11/11 07:04:18;;;;;;;35.75;17.40;;;2.90;84.30;;;0.72;96.19;96602.09;4994833;28;20049;-65
2021/11/11 07:06:44;;;;;;;50.75;16.60;;;3.00;84.20;;;0.74;96.50;96606.22;5012753;28;20061;-66
2021/11/11 07:09:09;;;;;;;53.20;18.45;;;3.00;83.90;;;0.73;95.59;96608.91;5011061;28;20045;-66
2021/11/11 07:11:35;;;;;;;48.92;19.08;;;2.90;84.50;;;0.73;95.77;96611.50;5010893;28;20037;-66
2021/11/11 07:14:01;;;;;;;69.93;20.38;;;2.90;84.50;;;0.74;95.20;96611.38;5011018;28;20522;-66
2021/11/11 07:16:27;;;;;;;56.20;19.25;;;2.90;84.30;;;0.77;96.59;96613.75;5012715;28;20038;-66
2021/11/11 07:18:53;;;;;;;60.47;21.40;;;3.00;84.80;;;0.74;96.10;96601.03;4994771;28;20505;-66
2021/11/11 07:21:18;;;;;;;51.33;18.77;;;3.00;84.10;;;0.80;95.72;96616.09;4994945;28;20034;-66
2021/11/11 07:23:44;;;;;;;63.55;17.77;;;3.00;84.30;;;0.83;95.89;96615.88;5010476;28;20038;-66
2021/11/11 07:26:10;;;;;;;113.50;17.77;;;3.10;83.90;;;0.79;95.74;96613.63;5010994;28;20034;-66
2021/11/11 07:28:36;;;;;;;69.95;19.27;;;2.80;83.70;;;0.78;95.73;96617.16;5011141;28;20113;-66
2021/11/11 07:31:01;;;;;;;87.88;18.73;;;2.80;84.60;;;0.77;95.67;96633.63;4994341;28;20054;-65
2021/11/11 07:33:27;;;;;;;58.50;18.42;;;2.70;84.20;;;0.72;95.69;96627.97;5010702;28;20179;-63
2021/11/11 07:35:53;;;;;;;47.20;17.88;;;2.70;84.70;;;0.74;95.92;96633.88;4994217;28;20040;-64
2021/11/11 07:38:19;;;;;;;27.48;18.20;;;3.00;84.70;;;0.81;96.73;96628.09;4994710;28;20502;-66
2021/11/11 07:40:45;;;;;;;33.78;16.27;;;3.10;84.50;;;0.87;95.50;96619.03;5011951;28;20501;-66
2021/11/11 07:43:10;;;;;;;35.72;16.02;;;3.20;83.90;;;0.94;96.08;96628.00;5010355;28;20064;-67
2021/11/11 07:45:36;;;;;;;26.83;15.55;;;3.30;83.20;;;0.99;95.87;96643.19;4974803;28;20034;-67
2021/11/11 07:48:02;;;;;;;20.02;14.70;;;3.30;82.90;;;1.06;95.66;96652.97;4991082;28;20057;-65
2021/11/11 07:50:38;;;;;;;29.85;13.85;;;3.40;82.90;;;1.13;96.12;96643.81;5022995;28;20035;-63
2021/11/11 07:53:08;;;;;;;44.80;14.43;;;3.50;82.40;;;1.13;95.00;96651.56;5010601;28;20038;-67
2021/11/11 07:55:34;;;;;;;49.53;14.20;;;3.40;82.00;;;1.17;95.19;96645.22;5009993;28;20033;-66
2021/11/11 07:58:02;;;;;;;27.77;14.30;;;3.50;82.10;;;1.24;95.33;96650.75;5011661;28;20029;-66
2021/11/11 08:00:28;;;;;;;32.03;19.42;;;3.50;82.10;;;1.31;95.18;96644.13;5010210;28;20115;-67
2021/11/11 08:02:53;;;;;;;29.48;16.55;;;3.70;82.40;;;1.31;94.36;96638.13;4977799;28;20514;-67
2021/11/11 08:05:19;;;;;;;58.88;14.45;;;3.60;81.70;;;1.28;93.98;96641.78;4993870;28;20062;-67
2021/11/11 08:07:49;;;;;;;41.67;13.35;;;3.30;81.90;;;1.29;94.25;96642.59;4993798;28;20114;-67
2021/11/11 08:10:19;;;;;;;75.40;12.18;;;3.50;82.30;;;1.34;94.39;96636.13;4993770;28;20149;-67
2021/11/11 08:12:45;;;;;;;28.40;11.98;;;3.50;81.30;;;1.34;94.58;96633.53;5010522;28;20060;-67
2021/11/11 08:15:10;;;;;;;21.58;11.80;;;3.60;81.80;;;1.32;93.39;96632.81;5010949;28;20038;-67
2021/11/11 08:17:36;;;;;;;41.45;13.45;;;3.50;81.60;;;1.32;94.16;96647.56;5009919;28;20108;-67
2021/11/11 08:20:04;;;;;;;39.20;13.20;;;3.50;82.00;;;1.35;93.73;96642.94;4993299;28;20026;-67
2021/11/11 08:22:30;;;;;;;39.25;12.90;;;3.60;81.90;;;1.40;93.90;96645.22;5010040;28;20038;-67
2021/11/11 08:24:56;;;;;;;93.65;12.88;;;3.60;81.60;;;1.38;93.71;96647.09;4973984;28;20126;-67
2021/11/11 08:27:22;;;;;;;17.75;13.70;;;3.50;81.10;;;1.38;93.39;96657.47;5006780;28;20034;-66
2021/11/11 08:29:49;;;;;;;38.38;12.57;;;3.60;81.80;;;1.42;94.09;96648.50;4989542;28;20027;-66
2021/11/11 08:32:14;;;;;;;48.10;12.10;;;3.60;81.20;;;1.48;94.01;96648.84;5006452;28;20045;-67
2021/11/11 08:34:41;;;;;;;39.97;12.40;;;3.90;81.10;;;1.56;93.69;96645.66;5002956;28;20061;-67
2021/11/11 08:37:07;;;;;;;22.98;12.85;;;4.00;81.10;;;1.61;93.91;96648.72;4993340;28;20033;-66
2021/11/11 08:39:33;;;;;;;52.83;12.18;;;4.10;81.00;;;1.69;94.07;96646.34;5010342;28;20033;-66
2021/11/11 08:41:58;;;;;;;15.98;12.40;;;4.20;80.10;;;1.78;94.17;96643.00;4993114;28;20033;-66
2021/11/11 08:44:24;;;;;;;24.17;11.40;;;4.40;80.40;;;1.88;93.85;96650.09;4977104;28;20038;-66
2021/11/11 08:46:50;;;;;;;57.75;11.63;;;4.50;79.30;;;1.92;93.03;96646.28;5009847;28;20033;-66
2021/11/11 08:49:17;;;;;;;49.10;12.88;;;4.50;79.20;;;2.01;93.20;96645.53;4992824;28;20112;-66
2021/11/11 08:51:43;;;;;;;13.40;11.18;;;4.60;79.50;;;2.12;93.39;96643.75;4992795;28;20510;-66
2021/11/11 08:54:08;;;;;;;38.08;12.02;;;4.70;79.20;;;2.18;93.09;96639.00;5008825;28;20038;-67
2021/11/11 08:56:34;;;;;;;30.02;12.63;;;4.80;78.40;;;2.29;93.15;96639.81;4993333;28;20038;-66
2021/11/11 08:59:00;;;;;;;31.10;14.80;;;4.90;78.20;;;2.37;92.67;96632.22;5008914;28;20446;-66
2021/11/11 09:01:26;;;;;;;35.45;17.65;;;5.00;78.50;;;2.46;92.62;96643.59;5010665;28;20034;-67
2021/11/11 09:03:52;;;;;;;25.35;16.67;;;5.10;79.00;;;2.57;92.45;96634.94;5008578;28;20045;-67
2021/11/11 09:06:18;;;;;;;20.38;14.15;;;5.20;78.90;;;2.69;92.55;96631.31;5010666;28;20038;-66
2021/11/11 09:08:44;;;;;;;30.27;13.90;;;5.40;78.10;;;2.76;91.83;96629.88;4992971;28;20041;-66
2021/11/11 09:11:09;;;;;;;41.45;13.32;;;5.40;77.10;;;2.85;92.04;96629.09;4992648;28;20688;-66
2021/11/11 09:13:35;;;;;;;31.23;11.95;;;5.40;77.30;;;2.94;91.46;96623.16;4976146;28;20105;-66
2021/11/11 09:16:02;;;;;;;67.28;13.18;;;5.60;76.90;;;3.04;91.90;96618.81;4993045;28;20449;-67
2021/11/11 09:18:28;;;;;;;75.07;12.70;;;5.70;77.00;;;3.16;91.72;96621.31;5010930;28;20058;-66
2021/11/11 09:20:54;;;;;;;225.27;15.68;;;5.70;76.60;;;3.20;90.88;96617.53;4993197;28;20076;-66
2021/11/11 09:23:20;;;;;;;28.00;12.60;;;5.60;76.00;;;3.24;90.21;96611.94;5009401;28;20454;-65
2021/11/11 09:25:48;;;;;;;30.80;13.45;;;5.70;75.80;;;3.27;90.11;96608.25;5008627;28;20141;-66
2021/11/11 09:28:14;;;;;;;17.65;12.40;;;5.70;76.40;;;3.33;90.39;96615.50;4993336;28;20034;-65
2021/11/11 09:30:39;;;;;;;14.50;11.38;;;5.80;76.80;;;3.37;90.05;96616.88;5008633;28;20037;-66
2021/11/11 09:33:06;;;;;;;43.88;12.73;;;6.00;76.10;;;3.40;90.31;96614.06;4992473;28;20049;-66
2021/11/11 09:35:32;;;;;;;13.95;12.30;;;6.10;75.70;;;3.50;89.95;96622.69;5008558;28;20038;-66
2021/11/11 09:37:58;;;;;;;26.52;12.75;;;6.20;75.30;;;3.60;89.55;96622.69;5008873;28;20038;-67
2021/11/11 09:40:25;;;;;;;28.42;13.32;;;6.30;75.30;;;3.71;89.69;96624.38;4992424;28;20049;-67
2021/11/11 09:42:51;;;;;;;16.80;12.75;;;6.40;75.60;;;3.74;89.01;96618.91;5008551;28;20553;-66
2021/11/11 09:45:19;;;;;;;19.02;13.45;;;6.50;75.00;;;3.88;89.41;96628.94;5010161;28;20049;-67
2021/11/11 09:47:46;;;;;;;27.63;13.82;;;6.60;74.90;;;3.99;89.63;96626.22;5008590;28;20029;-65
2021/11/11 09:50:12;;;;;;;21.88;13.55;;;6.70;74.70;;;4.04;89.18;96629.22;4991961;28;20150;-65
2021/11/11 09:52:41;;;;;;;17.52;13.68;;;6.60;74.70;;;4.15;88.28;96625.69;4975874;28;20030;-64
2021/11/11 10:00:44;;;;;;;17.98;13.55;;;7.10;74.50;;;4.41;88.50;96628.56;4975659;28;20481;-67
2021/11/11 10:03:10;;;;;;;19.35;13.88;;;7.10;74.40;;;4.51;88.75;96621.56;4989017;28;20034;-66
2021/11/11 10:05:36;;;;;;;64.57;13.98;;;7.20;74.50;;;4.59;89.03;96621.69;4990164;28;20030;-66
2021/11/11 10:08:06;;;;;;;25.17;13.85;;;7.40;73.70;;;4.64;88.12;96614.28;4986935;28;20140;-66
2021/11/11 10:10:40;;;;;;;22.33;14.05;;;7.20;74.30;;;4.72;87.62;96617.00;4976917;28;20058;-68
2021/11/11 10:13:20;;;;;;;14.77;13.13;;;7.30;73.70;;;4.82;86.71;96611.78;4993212;28;20035;-66
2021/11/11 10:16:12;;;;;;;14.25;12.85;;;7.60;72.90;;;4.96;85.71;96613.94;4992711;28;20045;-66
2021/11/11 10:18:48;;;;;;;28.20;13.77;;;7.80;72.30;;;5.07;85.71;96605.13;4993985;28;20544;-66
2021/11/11 10:21:24;;;;;;;16.33;14.27;;;8.00;71.50;;;5.19;86.64;96599.59;4993857;28;20053;-66
2021/11/11 10:23:50;;;;;;;14.65;13.10;;;8.20;71.00;;;5.37;86.88;96602.25;4993666;28;20030;-66
2021/11/11 10:26:38;;;;;;;19.52;14.77;;;8.40;71.30;;;5.49;86.37;96605.53;4961807;28;20065;-67
2021/11/11 10:29:21;;;;;;;22.85;15.32;;;8.50;71.20;;;5.70;85.12;96607.88;4998476;28;20030;-67
2021/11/11 10:31:55;;;;;;;21.23;16.70;;;8.70;69.30;;;5.84;85.07;96594.31;4981920;28;20026;-66
2021/11/11 10:34:21;;;;;;;17.23;15.35;;;9.00;69.20;;;5.99;84.56;96592.88;4979916;28;20040;-67
2021/11/11 10:36:52;;;;;;;17.25;15.15;;;9.20;68.40;;;6.18;83.94;96596.31;5013580;28;20053;-67
2021/11/11 10:39:24;;;;;;;24.30;15.25;;;9.40;68.00;;;6.27;84.79;96595.41;4995667;28;20100;-67
2021/11/11 10:41:52;;;;;;;18.20;14.80;;;9.40;68.40;;;6.32;84.05;96593.16;5011311;28;20481;-67